Baltic K — 3FLX8 — position and weather

sailwx.info

Track history (hours):
 
Tides and Currents Weather Stations Pressure Air Temp Water Temp Dewpoint Dewpoint Depression Visibility Wind Speed Wind Dir Waves Ship Positions

Baltic K

Last reported at 2018-Jan-03 03:09 UTC. Time now 2018-Jan-23 06:01 UTC.
Position N 25°14' E 122°38'.
Warning: this ship's position is 20 days out of date.

Length 190 m; draft 11.5 m.

Type: Cargo ship. MMSI: 373107000.

Date/timePositionNaut miles runAvg speedWind from/ knotsBaromVisibWave heightAir tempDewpointWater temp
2018-Jan-03 03:09N 25°14' E 122°38'214.2
2018-Jan-03 03:00N 25°12' E 122°39'714.2
2018-Jan-03 02:31N 25°05' E 122°40'714.1
2018-Jan-03 02:00N 24°58' E 122°40'815.0
2018-Jan-03 01:31N 24°51' E 122°37'816.0
2018-Jan-03 01:01N 24°43' E 122°33'816.1
2018-Jan-03 00:30N 24°36' E 122°30'816.6
2018-Jan-03 00:01N 24°28' E 122°26'816.3
2018-Jan-02 23:30N 24°21' E 122°22'714.9
2018-Jan-02 23:01N 24°15' E 122°18'713.2
2018-Jan-02 22:30N 24°08' E 122°16'714.5
2018-Jan-02 22:01N 24°01' E 122°15'4814.2
2018-Jan-02 18:39N 23°16' E 121°59'1614.1
2018-Jan-02 17:30N 23°00' E 121°53'713.6
2018-Jan-02 17:00N 22°54' E 121°51'1613.5
2018-Jan-02 15:51N 22°40' E 121°44'513.4
2018-Jan-02 15:28N 22°35' E 121°42'613.4
2018-Jan-02 15:00N 22°29' E 121°39'1912.2
2018-Jan-02 13:25N 22°12' E 121°30'1313.7
2018-Jan-02 12:27N 22°01' E 121°22'  
2017-Dec-27 14:41N 01°15' E 104°01'210.3
2017-Dec-27 14:30N 01°15' E 103°59'3 6.3
2017-Dec-27 14:00N 01°16' E 103°57'1 1.0
2017-Dec-27 13:26N 01°17' E 103°57'0 0.1
2017-Dec-27 11:32N 01°17' E 103°57'0 0.2
2017-Dec-27 11:14N 01°17' E 103°57'0 0.1
2017-Dec-27 10:47N 01°17' E 103°56'0 0.0
2017-Dec-27 10:28N 01°17' E 103°56'0 0.0
2017-Dec-27 08:32N 01°17' E 103°56'0 0.0
2017-Dec-27 08:11N 01°17' E 103°56'0 0.0
2017-Dec-27 03:53N 01°17' E 103°56'0 0.0
2017-Dec-27 03:25N 01°17' E 103°56'0 0.1
2017-Dec-27 03:00N 01°17' E 103°57'2 3.4
2017-Dec-27 02:30N 01°15' E 103°57'3 5.4
2017-Dec-27 01:59N 01°13' E 103°55'4 8.1
2017-Dec-27 01:30N 01°12' E 103°52'4 7.4
2017-Dec-27 01:00N 01°10' E 103°48'4 8.7
2017-Dec-27 00:30N 01°07' E 103°45'4 8.3
2017-Dec-27 00:00N 01°04' E 103°42'4 7.6
2017-Dec-26 23:30N 01°03' E 103°38'4 8.1
2017-Dec-26 23:00N 01°05' E 103°35'4 8.3
2017-Dec-26 22:30N 01°07' E 103°31'4 7.8
2017-Dec-26 21:59N 01°09' E 103°28'4 7.2
2017-Dec-26 21:29N 01°11' E 103°25'5 9.1
2017-Dec-26 20:58N 01°14' E 103°21'5 9.2
2017-Dec-26 20:28N 01°17' E 103°18'  
Track history (hours):
 
Tides and Currents Weather Stations Pressure Air Temp Water Temp Dewpoint Dewpoint Depression Visibility Wind Speed Wind Dir Waves Ship Positions

Baltic K

Last reported at 2018-Jan-03 03:09 UTC. Time now 2018-Jan-23 06:01 UTC.
Position N 25°14' E 122°38'.
Warning: this ship's position is 20 days out of date.

Length 190 m; draft 11.5 m.

Type: Cargo ship. MMSI: 373107000.

Date/timePositionNaut miles runAvg speedWind from/ knotsBaromVisibWave heightAir tempDewpointWater temp
2018-Jan-03 03:09N 25°14' E 122°38'214.2
2018-Jan-03 03:00N 25°12' E 122°39'714.2
2018-Jan-03 02:31N 25°05' E 122°40'714.1
2018-Jan-03 02:00N 24°58' E 122°40'815.0
2018-Jan-03 01:31N 24°51' E 122°37'816.0
2018-Jan-03 01:01N 24°43' E 122°33'816.1
2018-Jan-03 00:30N 24°36' E 122°30'816.6
2018-Jan-03 00:01N 24°28' E 122°26'816.3
2018-Jan-02 23:30N 24°21' E 122°22'714.9
2018-Jan-02 23:01N 24°15' E 122°18'713.2
2018-Jan-02 22:30N 24°08' E 122°16'714.5
2018-Jan-02 22:01N 24°01' E 122°15'4814.2
2018-Jan-02 18:39N 23°16' E 121°59'1614.1
2018-Jan-02 17:30N 23°00' E 121°53'713.6
2018-Jan-02 17:00N 22°54' E 121°51'1613.5
2018-Jan-02 15:51N 22°40' E 121°44'513.4
2018-Jan-02 15:28N 22°35' E 121°42'613.4
2018-Jan-02 15:00N 22°29' E 121°39'1912.2
2018-Jan-02 13:25N 22°12' E 121°30'1313.7
2018-Jan-02 12:27N 22°01' E 121°22'  
2017-Dec-27 14:41N 01°15' E 104°01'210.3
2017-Dec-27 14:30N 01°15' E 103°59'3 6.3
2017-Dec-27 14:00N 01°16' E 103°57'1 1.0
2017-Dec-27 13:26N 01°17' E 103°57'0 0.1
2017-Dec-27 11:32N 01°17' E 103°57'0 0.2
2017-Dec-27 11:14N 01°17' E 103°57'0 0.1
2017-Dec-27 10:47N 01°17' E 103°56'0 0.0
2017-Dec-27 10:28N 01°17' E 103°56'0 0.0
2017-Dec-27 08:32N 01°17' E 103°56'0 0.0
2017-Dec-27 08:11N 01°17' E 103°56'0 0.0
2017-Dec-27 03:53N 01°17' E 103°56'0 0.0
2017-Dec-27 03:25N 01°17' E 103°56'0 0.1
2017-Dec-27 03:00N 01°17' E 103°57'2 3.4
2017-Dec-27 02:30N 01°15' E 103°57'3 5.4
2017-Dec-27 01:59N 01°13' E 103°55'4 8.1
2017-Dec-27 01:30N 01°12' E 103°52'4 7.4
2017-Dec-27 01:00N 01°10' E 103°48'4 8.7
2017-Dec-27 00:30N 01°07' E 103°45'4 8.3
2017-Dec-27 00:00N 01°04' E 103°42'4 7.6
2017-Dec-26 23:30N 01°03' E 103°38'4 8.1
2017-Dec-26 23:00N 01°05' E 103°35'4 8.3
2017-Dec-26 22:30N 01°07' E 103°31'4 7.8
2017-Dec-26 21:59N 01°09' E 103°28'4 7.2
2017-Dec-26 21:29N 01°11' E 103°25'5 9.1
2017-Dec-26 20:58N 01°14' E 103°21'5 9.2
2017-Dec-26 20:28N 01°17' E 103°18'  

Dump ship's entire track history